Alpine Haven, Vermont
Current Conditions -  °F | °C
As of 7:15 AM on Saturday 25 Oct 2014 (Local Time) from KEFK Reporting Station
Clear Clear  
Wind Chill:   Ceiling: Unl
Heat Index:   Visibility: 7mi
Dew Point: -1°   Wind: 0mph
Humidity: 99%   Direction: NA
Pressure: 29.75"   Gusts: NA
Location:  44.8557°N, 72.6016°W
Report Text: KEFK 251115Z AUTO 00000KT 7SM CLR 00/00 A2975 RMK AO2 T10041005
Loading
Personal Weather Stations






























Interactive Weather Map New forecast layout! Learn more

10-Day Weather Forecast

Advertisements
Track Severe Weather on mobile